Track Скачкова Татьяна

Time Latitude Longitude Accuracy (66% radius in meters) Altitude (meters) Speed (km/hour) Bearing (degrees) Battery (%) GPS flag
10:30:48 44.559005 38.197415 8 90.004358391142 0.27297073602676 148.78204345703 77 1 delete
10:30:36 44.559011 38.197414 16 90.230385183323 0 148.78204345703 77 1 delete
10:30:24 44.559011 38.197414 12 89.995664995471 0 148.78204345703 77 1 delete
10:30:15 44.559020 38.197405 16 90.303881406725 0.75168240070343 148.78204345703 77 1 delete
10:30:12 44.559031 38.197396 16 91.019657241165 0.20943365991116 229.47854614258 77 1 delete
10:30:00 44.559037 38.197394 12 92.159013573592 0.41088902950287 229.47854614258 77 1 delete
10:29:51 44.559045 38.197407 12 92.289020557769 0.33944997191429 321.05505371094 77 1 delete
10:29:39 44.559048 38.197421 8 93.079003129398 0 321.05505371094 77 1 delete
10:29:27 44.559041 38.197427 8 92.961820437772 0 188.78198242188 77 1 delete
10:29:15 44.559035 38.197426 8 92.720410900203 0.47421410679817 188.78198242188 77 1 delete
10:29:03 44.559043 38.197438 12 93.614262709263 0 188.78198242188 77 1 delete
10:28:51 44.559043 38.197438 24 93.291418581765 0 188.78198242188 77 1 delete
10:28:39 44.559043 38.197438 12 93.126928353766 0 188.78198242188 77 1 delete
10:28:27 44.559043 38.197438 12 93.111630471288 0.0061872033402324 188.78198242188 77 1 delete
10:28:15 44.559043 38.197438 8 93.266021956644 0 188.78198242188 77 1 delete
10:28:06 44.559043 38.197438 12 93.591107226239 0.15444660186768 188.78198242188 77 1 delete
10:27:54 44.559043 38.197438 16 93.905920253497 0 188.78198242188 77 1 delete
10:27:33 44.559059 38.197442 8 95.26650738317 3.23921251297 206.18882751465 77 1 delete
10:27:30 44.559158 38.197493 8 96.246142430958 3.3176324367523 203.58354187012 77 1 delete
10:27:27 44.559268 38.197560 12 101.70730347972 3.2209169864655 209.35491943359 77 1 delete
10:27:24 44.559371 38.197609 12 102.99961579561 3.120320558548 183.03161621094 77 1 delete
10:27:21 44.559482 38.197599 12 104.33067840371 2.9935238361359 176.18412780762 77 1 delete
10:27:18 44.559576 38.197587 16 105.46716800903 2.7810645103455 182.03776550293 77 1 delete
10:27:15 44.559657 38.197612 12 106.37326878341 2.552300453186 191.87425231934 77 1 delete
10:27:12 44.559738 38.197694 12 107.2452945438 2.288535118103 220.0933380127 77 1 delete
10:27:09 44.559818 38.197794 12 108.10253794106 2.0204582214355 200.49028015137 77 1 delete
10:27:06 44.559930 38.197906 16 108.90967996542 1.5689545869827 183.86143493652 77 1 delete
10:27:03 44.559979 38.198106 12 109.89511531053 1.1747419834137 284.68948364258 77 1 delete
10:27:00 44.559957 38.198201 12 111.04292568177 0.78115475177765 221.8856048584 77 1 delete
10:26:50 44.559986 38.198261 12 114.43571891206 1.1703062057495 204.08358764648 77 1 delete
10:26:47 44.560008 38.198285 12 116.05506312722 1.2688841819763 226.12646484375 77 1 delete
10:26:44 44.560006 38.198321 8 117.40132262244 1.3568402528763 303.98092651367 77 1 delete
10:26:41 44.559987 38.198381 12 118.45180517683 1.312593460083 278.14196777344 77 1 delete
10:26:38 44.559964 38.198443 12 119.27679728475 1.2905383110046 278.08047485352 77 1 delete
10:26:35 44.559964 38.198489 8 120.0729564562 1.42145216465 268.48040771484 77 1 delete
10:26:32 44.559972 38.198531 8 120.72839820187 1.5449534654617 273.58224487305 77 1 delete
10:26:29 44.560000 38.198624 8 121.44476382986 1.4848966598511 243.24104309082 77 1 delete
10:26:26 44.560016 38.198727 12 121.47586705268 1.4853607416153 247.15768432617 77 1 delete
10:26:23 44.560032 38.198799 8 121.38676113153 1.3740202188492 239.46484375 77 1 delete
10:26:20 44.560058 38.198918 12 121.10092929892 1.2747087478638 207.49369812012 77 1 delete
10:26:17 44.560101 38.198991 12 120.79340950185 1.1511937379837 265.51586914062 77 1 delete
10:26:14 44.560107 38.199084 12 120.36537205203 1.0809112787247 276.79876708984 77 1 delete
10:26:11 44.560110 38.199147 12 119.92150134923 0.92585742473602 228.75798034668 77 1 delete
10:26:08 44.560130 38.199171 8 119.35377036508 0.77111202478409 241.33697509766 77 1 delete
10:26:05 44.560167 38.199231 8 118.81259661362 0.50279611349106 137.65026855469 77 1 delete
10:25:56 44.560212 38.199248 8 118.15525922817 0.52852642536163 110.69926452637 77 1 delete
10:25:50 44.560246 38.199203 12 117.61540443991 0.7652280330658 167.18775939941 77 1 delete
10:25:44 44.560299 38.199202 12 116.91115830938 0.53637981414795 220.81678771973 77 1 delete
10:25:35 44.560313 38.199219 12 115.97712837018 0.47241544723511 83.139587402344 77 1 delete
10:25:32 44.560310 38.199191 8 115.39592986558 1.076474905014 99.03825378418 77 1 delete